Spraggs, Pennsylvania
Current Conditions -  °F | °C
As of 11:53 AM on Friday 21 Nov 2014 (Local Time) from KMGW Reporting Station
Broken Clouds Broken Clouds  
Wind Chill: 22°   Ceiling: 4100
Heat Index: 28°   Visibility: 10mi
Dew Point:   Wind: 6mph
Humidity: 38%   Direction: NA
Pressure: 30.45"   Gusts: NA
Location:  39.78°N, 80.22°W
Report Text: KMGW 211653Z VRB05KT 10SM BKN041 M02/M15 A3045 RMK AO2 SLP326 T10221150 $
Loading
Personal Weather Stations






























Interactive Weather Map New forecast layout! Learn more

10-Day Weather Forecast

Advertisements
Track Severe Weather on mobile